Orlando, Florida
Traffic Map
Current Weather Conditions
Orlando, Florida
Few Clouds
Few Clouds
21°
Feels Like: 21°
Wind Chill: 21° Ceiling: Unl
Heat Index: 21° Visibility: 10mi
Dew Point: 19° Wind: 3mph
Humidity: 87% Direction: 170° (S)
Pressure: 29.8in Gusts: 0mph
Raw Report DataKORL 280653Z 17003KT 10SM FEW110 21/19 A2980 RMK AO2 SLP094 T02110189
Traffic Incident Summary
Active as of:
Severity:
Category:
InformationThere was an issue retrieving the traffic information for this location. Please try a different location or try again shortly.
Advertisements
Track Severe Weather on mobile